createdAt,value
2023-03-23T15:58:24.600Z,19.84
2023-03-23T16:00:58.023Z,19.67
2023-03-23T16:03:41.131Z,19.49
2023-03-23T16:06:46.708Z,19.44
2023-03-23T16:09:23.623Z,19.37
2023-03-23T16:15:21.880Z,19.22
2023-03-23T16:18:34.389Z,19.03
2023-03-23T16:21:08.817Z,19.02
2023-03-23T16:23:44.688Z,18.98
2023-03-23T16:26:17.876Z,19.09
2023-03-23T16:29:33.840Z,19.09
2023-03-23T16:32:06.807Z,19.05
2023-03-23T16:34:37.179Z,18.89
2023-03-23T16:37:08.882Z,18.62
2023-03-23T16:39:40.874Z,18.40
2023-03-23T16:42:27.589Z,18.31
2023-03-23T16:45:27.681Z,18.30
2023-03-23T16:48:04.176Z,18.27
2023-03-23T16:51:01.224Z,18.17
2023-03-23T16:53:30.639Z,18.07
2023-03-23T16:56:02.688Z,17.97
2023-03-23T16:58:31.492Z,17.92
2023-03-23T17:01:03.045Z,17.83
2023-03-23T17:03:32.862Z,17.75
2023-03-23T17:06:03.071Z,17.71
2023-03-23T17:08:33.040Z,17.57
2023-03-23T17:11:08.522Z,17.45
2023-03-23T17:13:39.570Z,17.41
2023-03-23T17:16:10.780Z,17.27
2023-03-23T17:18:41.998Z,17.09
2023-03-23T17:21:12.635Z,16.87
2023-03-23T17:23:43.333Z,16.69
2023-03-23T17:26:14.104Z,16.58
2023-03-23T17:28:44.066Z,16.47
2023-03-23T17:31:15.219Z,16.32
2023-03-23T17:33:45.117Z,16.07
2023-03-23T17:36:16.312Z,15.74
2023-03-23T17:38:47.761Z,15.55
2023-03-23T17:41:22.092Z,15.41
2023-03-23T17:43:58.341Z,15.28
2023-03-23T17:46:28.587Z,15.18
2023-03-23T17:48:58.649Z,15.11
2023-03-23T17:51:29.986Z,14.98
2023-03-23T17:53:59.149Z,14.87
2023-03-23T17:56:58.133Z,14.85
2023-03-23T17:59:31.729Z,14.76
2023-03-23T18:02:08.037Z,14.66
2023-03-23T18:04:38.590Z,14.56
2023-03-23T18:07:10.426Z,14.60
2023-03-23T18:09:44.042Z,14.69
2023-03-23T18:12:21.749Z,14.67
2023-03-23T18:14:55.105Z,14.59
2023-03-23T18:17:33.631Z,14.43
2023-03-23T18:20:02.808Z,14.42
2023-03-23T18:22:35.118Z,14.39
2023-03-23T18:26:20.845Z,14.25
2023-03-23T18:29:45.078Z,13.98
2023-03-23T18:33:10.004Z,13.74
2023-03-23T18:36:09.377Z,13.69
2023-03-23T18:42:57.276Z,13.57
2023-03-23T18:46:28.461Z,13.47
2023-03-23T18:49:29.308Z,13.20
2023-03-23T18:52:34.532Z,13.09
2023-03-23T18:59:34.581Z,12.98
2023-03-23T19:06:31.936Z,13.13
2023-03-23T19:13:30.496Z,12.84
2023-03-23T19:16:29.356Z,12.51
2023-03-23T19:28:18.101Z,12.13
2023-03-23T19:31:04.943Z,12.20
2023-03-23T19:33:42.093Z,12.32
2023-03-23T19:36:42.666Z,12.46
2023-03-23T19:43:37.950Z,12.50
2023-03-23T19:46:20.597Z,12.57
2023-03-23T19:49:16.780Z,12.61
2023-03-23T19:52:13.937Z,12.51
2023-03-23T19:55:43.376Z,12.33
2023-03-23T20:02:50.751Z,12.05
2023-03-23T20:06:16.773Z,11.92
2023-03-23T20:14:02.815Z,11.60
2023-03-23T20:16:34.037Z,11.47
2023-03-23T20:19:32.822Z,11.36
2023-03-23T20:23:16.342Z,11.27
2023-03-23T20:30:14.533Z,10.92
2023-03-23T20:37:06.504Z,10.93
2023-03-23T20:40:31.582Z,10.96
2023-03-23T20:43:05.449Z,10.79
2023-03-23T20:45:48.659Z,10.72
2023-03-23T20:48:37.881Z,10.67
2023-03-23T20:51:35.641Z,10.69
2023-03-23T20:54:35.395Z,10.61
2023-03-23T20:57:11.624Z,10.55
2023-03-23T21:00:07.734Z,10.54
2023-03-23T21:03:04.956Z,10.44
2023-03-23T21:05:43.105Z,10.41
2023-03-23T21:08:19.078Z,10.36
2023-03-23T21:10:58.432Z,10.17
2023-03-23T21:14:02.433Z,10.18
2023-03-23T21:16:42.136Z,10.10
2023-03-23T21:20:05.030Z,10.12
2023-03-23T21:23:27.688Z,10.06
2023-03-23T21:26:30.150Z,10.09
2023-03-23T21:33:25.200Z,10.16
2023-03-23T21:36:05.502Z,10.04
2023-03-23T21:39:41.009Z,10.00
2023-03-23T21:43:19.316Z,9.71
2023-03-23T21:50:16.202Z,9.31
2023-03-23T21:53:07.064Z,9.20
2023-03-23T21:56:00.962Z,9.21
2023-03-23T21:59:27.274Z,9.23
2023-03-23T22:02:22.041Z,9.20
2023-03-23T22:05:06.970Z,9.14
2023-03-23T22:07:40.129Z,9.13
2023-03-23T22:14:43.410Z,8.70
2023-03-23T22:18:06.205Z,8.42
2023-03-23T22:20:41.167Z,8.32
2023-03-23T22:23:42.952Z,8.37
2023-03-23T22:27:19.102Z,8.44
2023-03-23T22:29:52.162Z,8.49
2023-03-23T22:32:21.702Z,8.49
2023-03-23T22:35:15.930Z,8.46
2023-03-23T22:38:21.264Z,8.46
2023-03-23T22:40:56.663Z,8.42
2023-03-23T22:43:42.414Z,8.40
2023-03-23T22:50:40.421Z,8.34
2023-03-23T22:53:14.732Z,8.31
2023-03-23T22:56:08.883Z,8.35
2023-03-23T23:04:01.144Z,8.45
2023-03-23T23:06:31.913Z,8.49
2023-03-23T23:09:18.189Z,8.52
2023-03-23T23:12:12.593Z,8.53
2023-03-23T23:19:02.289Z,8.53
2023-03-23T23:21:41.247Z,8.49
2023-03-23T23:25:06.827Z,8.46
2023-03-23T23:28:42.699Z,8.42
2023-03-23T23:35:29.419Z,8.13
2023-03-23T23:38:04.929Z,8.08
2023-03-23T23:44:57.472Z,8.11
2023-03-23T23:47:38.048Z,7.98
2023-03-23T23:54:30.416Z,7.83
2023-03-23T23:56:59.508Z,7.80
2023-03-23T23:59:32.675Z,7.80
